»·PEaware :: N525CD KSMX-KPGA

N525CD :: KSMX-KPGA

FLIGHT INFORMATION

Flight Status: Arrived
Operator: Privately registered:
United States
More flights under this callsign
Pilot: Jim P. (2486)
Aircraft: CESSNA 525 CITATION JET CJ1
(C525)
More flights by this aircraft type
Origin: KSMX Santa Maria Pub/Capt Hancock
United States
Destination: KPGA Page Mun
United States
More flights between these airports :: More routes between these airports
Route: +BUELT4 FLW BTY LAS PGA
File this flight plan on PilotEdge
Remarks:
Altitude:
(Current/Filed)
35,000ft
Speed:
(Current/Filed)
400kts
Departed: 18-Jan-17 09:15 AM
Arrived: 18-Jan-17 11:04 AM
Distance/Time
Traveled:
454nm/1:49
Distance/Time
To Go:
Arrived

Flight Plot

Page will automatically refresh every two minutes.

Flight plan parsing failed; only flown route is shown


Map Options




Map Legend


Flown Route
Filed Route
Departure Airport
Arrival Airport
Navaid (VOR, NDB)
Fix

Horizontal Profiles

Position Reports

Time Latitude Longitude Heading Altitude Ground
Speed
18-Jan-17 09:00 34.896129 -120.445074 312 265ft 0kts
18-Jan-17 09:01 34.896129 -120.445074 312 265ft 0kts
18-Jan-17 09:02 34.896129 -120.445074 312 265ft 0kts
18-Jan-17 09:03 34.896129 -120.445074 312 265ft 0kts
18-Jan-17 09:04 34.896129 -120.445074 312 265ft 0kts
18-Jan-17 09:05 34.896129 -120.445074 312 265ft 0kts
18-Jan-17 09:06 34.896129 -120.445074 312 265ft 0kts
18-Jan-17 09:07 34.896129 -120.445074 312 265ft 0kts
18-Jan-17 09:08 34.896129 -120.445074 312 265ft 0kts
18-Jan-17 09:09 34.896129 -120.445074 312 265ft 0kts
18-Jan-17 09:10 34.896084 -120.445351 226 265ft 2kts
18-Jan-17 09:11 34.894831 -120.445230 223 265ft 8kts
18-Jan-17 09:12 34.893479 -120.445250 184 265ft 0kts
18-Jan-17 09:13 34.893476 -120.445250 184 265ft 0kts
18-Jan-17 09:14 34.892853 -120.445772 278 265ft 6kts
18-Jan-17 09:15 34.894921 -120.448323 316 265ft 85kts
18-Jan-17 09:16 34.937854 -120.472520 30 3120ft 211kts
18-Jan-17 09:17 34.914245 -120.441128 207 4667ft 226kts
18-Jan-17 09:18 34.851608 -120.462578 155 4994ft 253kts
18-Jan-17 09:19 34.806514 -120.414054 137 4985ft 200kts
18-Jan-17 09:20 34.766559 -120.364658 137 5576ft 256kts
18-Jan-17 09:21 34.717772 -120.318382 173 7465ft 299kts
18-Jan-17 09:22 34.648342 -120.315784 126 9444ft 256kts
18-Jan-17 09:23 34.679654 -120.233429 18 12624ft 327kts
18-Jan-17 09:24 34.760697 -120.176214 33 16757ft 344kts
18-Jan-17 09:25 34.836728 -120.105672 33 20851ft 341kts
18-Jan-17 09:26 34.912576 -120.034957 32 23262ft 377kts
18-Jan-17 09:27 34.996616 -119.956107 32 23235ft 383kts
18-Jan-17 09:28 35.080216 -119.873593 44 24345ft 399kts
18-Jan-17 09:29 35.124644 -119.747141 65 26681ft 407kts
18-Jan-17 09:30 35.161323 -119.617657 63 29072ft 400kts
18-Jan-17 09:31 35.196988 -119.490018 62 31459ft 393kts
18-Jan-17 09:32 35.228959 -119.373841 60 33676ft 383kts
18-Jan-17 09:33 35.262842 -119.250420 59 35210ft 394kts
18-Jan-17 09:34 35.296123 -119.128449 60 35216ft 420kts
18-Jan-17 09:35 35.333374 -118.990662 61 35211ft 431kts
18-Jan-17 09:36 35.370970 -118.850968 61 35212ft 433kts
18-Jan-17 09:37 35.408516 -118.710980 61 35216ft 432kts
18-Jan-17 09:38 35.445911 -118.570644 61 35220ft 432kts
18-Jan-17 09:39 35.483032 -118.430697 61 35222ft 432kts
18-Jan-17 09:40 35.520013 -118.290573 61 35221ft 432kts
18-Jan-17 09:41 35.556825 -118.150346 62 35219ft 432kts
18-Jan-17 09:42 35.590944 -118.019639 62 35216ft 433kts
18-Jan-17 09:43 35.628944 -117.880264 50 35215ft 416kts
18-Jan-17 09:44 35.717807 -117.827630 356 35222ft 351kts
18-Jan-17 09:45 35.804572 -117.866453 325 35226ft 335kts
18-Jan-17 09:46 35.880533 -117.933121 323 35219ft 336kts
18-Jan-17 09:47 35.956194 -118.001451 323 35216ft 336kts
18-Jan-17 09:48 36.031644 -118.069549 323 35217ft 336kts
18-Jan-17 09:49 36.107185 -118.137309 324 35219ft 336kts
18-Jan-17 09:50 36.197127 -118.112581 33 35223ft 396kts
18-Jan-17 09:51 36.269693 -118.005693 41 35216ft 408kts
18-Jan-17 09:52 36.338862 -117.894319 42 35215ft 408kts
18-Jan-17 09:53 36.396306 -117.801363 42 35213ft 408kts
18-Jan-17 09:54 36.465329 -117.689541 42 35213ft 409kts
18-Jan-17 09:55 36.485902 -117.543605 68 35217ft 440kts
18-Jan-17 09:56 36.551095 -117.395472 52 35216ft 420kts
18-Jan-17 09:57 36.603293 -117.264675 54 35216ft 423kts
18-Jan-17 09:58 36.645602 -117.154643 55 35208ft 423kts
18-Jan-17 09:59 36.696096 -117.022601 55 35207ft 422kts
18-Jan-17 10:00 36.746475 -116.890104 56 35208ft 422kts
18-Jan-17 10:01 36.720391 -116.720601 117 35216ft 468kts
18-Jan-17 10:02 36.658648 -116.578323 112 35211ft 466kts
18-Jan-17 10:03 36.600960 -116.434327 111 35217ft 464kts
18-Jan-17 10:04 36.542875 -116.290503 111 35191ft 464kts
18-Jan-17 10:05 36.494728 -116.171196 111 35211ft 462kts
18-Jan-17 10:06 36.427421 -116.004946 111 35190ft 462kts
18-Jan-17 10:07 36.369598 -115.863478 112 35227ft 459kts
18-Jan-17 10:08 36.321831 -115.745753 111 35224ft 459kts
18-Jan-17 10:09 36.254260 -115.581135 111 35247ft 458kts
18-Jan-17 10:10 36.206057 -115.463905 111 35233ft 459kts
18-Jan-17 10:11 36.148086 -115.323919 111 35236ft 456kts
18-Jan-17 10:12 36.096985 -115.182350 94 35254ft 440kts
18-Jan-17 10:13 36.110207 -115.040268 63 35262ft 410kts
18-Jan-17 10:14 36.142835 -114.904469 65 35248ft 410kts
18-Jan-17 10:15 36.175458 -114.769933 65 35257ft 407kts
18-Jan-17 10:16 36.207956 -114.636011 65 35259ft 406kts
18-Jan-17 10:17 36.240202 -114.502597 65 35260ft 404kts
18-Jan-17 10:18 36.272254 -114.369213 65 35258ft 402kts
18-Jan-17 10:19 36.304133 -114.235943 65 35259ft 407kts
18-Jan-17 10:20 36.336286 -114.100717 65 35260ft 410kts
18-Jan-17 10:21 36.368440 -113.964766 65 35253ft 411kts
18-Jan-17 10:22 36.400362 -113.828925 66 35258ft 410kts
18-Jan-17 10:23 36.432140 -113.692869 66 35259ft 409kts
18-Jan-17 10:24 36.463652 -113.557280 66 35262ft 409kts
18-Jan-17 10:25 36.494331 -113.424190 66 34238ft 386kts
18-Jan-17 10:26 36.523549 -113.297283 67 32344ft 380kts
18-Jan-17 10:27 36.552320 -113.171357 67 30479ft 378kts
18-Jan-17 10:28 36.581056 -113.045154 68 28568ft 378kts
18-Jan-17 10:29 36.609507 -112.919366 69 26715ft 378kts
18-Jan-17 10:30 36.637885 -112.793216 70 24817ft 379kts
18-Jan-17 10:31 36.665463 -112.669803 70 24247ft 359kts
18-Jan-17 10:32 36.690183 -112.558339 69 23204ft 294kts
18-Jan-17 10:33 36.711558 -112.462292 69 21115ft 288kts
18-Jan-17 10:34 36.732829 -112.365965 69 19019ft 288kts
18-Jan-17 10:35 36.761986 -112.273997 60 16949ft 285kts
18-Jan-17 10:36 36.791876 -112.181660 70 14863ft 290kts
18-Jan-17 10:37 36.807128 -112.081888 79 12784ft 294kts
18-Jan-17 10:38 36.819865 -111.990541 74 10686ft 254kts
18-Jan-17 10:39 36.838008 -111.913170 72 9995ft 219kts
18-Jan-17 10:40 36.853581 -111.840681 75 9988ft 214kts
18-Jan-17 10:41 36.866693 -111.768259 75 9987ft 212kts
18-Jan-17 10:42 36.881179 -111.696473 74 9987ft 213kts
18-Jan-17 10:43 36.895733 -111.624562 75 9988ft 214kts
18-Jan-17 10:44 36.910053 -111.552535 74 9989ft 213kts
18-Jan-17 10:45 36.924421 -111.480493 75 9988ft 214kts
18-Jan-17 10:46 36.904678 -111.422241 166 9994ft 211kts
18-Jan-17 10:47 36.889280 -111.466451 325 10011ft 202kts
18-Jan-17 10:48 36.941839 -111.493467 338 9988ft 205kts
18-Jan-17 10:49 36.999673 -111.519837 340 8825ft 233kts
18-Jan-17 10:50 37.030959 -111.470497 124 7522ft 236kts
18-Jan-17 10:51 36.971346 -111.458638 188 6733ft 220kts
18-Jan-17 10:52 36.913557 -111.443626 191 6677ft 210kts
18-Jan-17 10:53 36.915291 -111.493638 346 6709ft 211kts
18-Jan-17 10:54 36.974571 -111.494763 2 6688ft 214kts
18-Jan-17 10:55 37.033510 -111.496124 337 6689ft 212kts
18-Jan-17 10:56 37.064635 -111.555886 290 6687ft 210kts
18-Jan-17 10:57 37.030498 -111.583508 134 6476ft 214kts
18-Jan-17 10:58 37.005238 -111.519128 112 5360ft 181kts
18-Jan-17 10:59 36.986768 -111.474906 149 5124ft 128kts
18-Jan-17 11:00 36.952964 -111.456265 145 5141ft 135kts
18-Jan-17 11:01 36.920654 -111.431744 157 5155ft 137kts
18-Jan-17 11:02 36.887874 -111.429185 247 4709ft 121kts
18-Jan-17 11:03 36.911108 -111.444124 347 4440ft 112kts
18-Jan-17 11:04 36.928953 -111.448175 356 4260ft 2kts
18-Jan-17 11:05 36.926644 -111.449080 186 4260ft 10kts
18-Jan-17 11:06 36.925534 -111.450213 176 4260ft 0kts

Navigation Log

Ident Type
Flight plan parsing failed, navigation log unavailable